sensor_id;sensor_type;location;lat;lon;timestamp;temperature;humidity
24836;DHT22;12915;57.650;12.044;2023-12-22T00:01:34;1.40;99.90
24836;DHT22;12915;57.650;12.044;2023-12-22T00:04:01;1.30;99.90
24836;DHT22;12915;57.650;12.044;2023-12-22T00:06:28;1.20;99.90
24836;DHT22;12915;57.650;12.044;2023-12-22T00:08:53;1.20;99.90
24836;DHT22;12915;57.650;12.044;2023-12-22T00:11:19;1.10;99.90
24836;DHT22;12915;57.650;12.044;2023-12-22T00:13:47;1.40;99.90
24836;DHT22;12915;57.650;12.044;2023-12-22T00:16:16;1.80;99.90
24836;DHT22;12915;57.650;12.044;2023-12-22T00:18:46;1.70;99.90
24836;DHT22;12915;57.650;12.044;2023-12-22T00:21:11;1.50;99.90
24836;DHT22;12915;57.650;12.044;2023-12-22T00:23:37;1.30;99.90
24836;DHT22;12915;57.650;12.044;2023-12-22T00:26:05;1.20;99.90
24836;DHT22;12915;57.650;12.044;2023-12-22T00:28:30;1.20;99.90
24836;DHT22;12915;57.650;12.044;2023-12-22T00:30:57;1.10;99.90
24836;DHT22;12915;57.650;12.044;2023-12-22T00:33:23;1.30;99.90
24836;DHT22;12915;57.650;12.044;2023-12-22T00:35:49;1.60;99.90
24836;DHT22;12915;57.650;12.044;2023-12-22T00:38:14;1.50;99.90
24836;DHT22;12915;57.650;12.044;2023-12-22T00:40:40;1.30;99.90
24836;DHT22;12915;57.650;12.044;2023-12-22T00:43:06;1.20;99.90
24836;DHT22;12915;57.650;12.044;2023-12-22T00:45:31;1.30;99.90
24836;DHT22;12915;57.650;12.044;2023-12-22T00:47:57;1.40;99.90
24836;DHT22;12915;57.650;12.044;2023-12-22T00:50:23;1.30;99.90
24836;DHT22;12915;57.650;12.044;2023-12-22T00:52:49;1.40;99.90
24836;DHT22;12915;57.650;12.044;2023-12-22T00:55:14;1.30;99.90
24836;DHT22;12915;57.650;12.044;2023-12-22T00:57:40;1.20;99.90
24836;DHT22;12915;57.650;12.044;2023-12-22T01:00:06;1.30;99.90
24836;DHT22;12915;57.650;12.044;2023-12-22T01:02:35;1.30;99.90
24836;DHT22;12915;57.650;12.044;2023-12-22T01:05:01;1.20;99.90
24836;DHT22;12915;57.650;12.044;2023-12-22T01:07:27;1.30;99.90
24836;DHT22;12915;57.650;12.044;2023-12-22T01:09:52;1.30;99.90
24836;DHT22;12915;57.650;12.044;2023-12-22T01:12:19;1.20;99.90
24836;DHT22;12915;57.650;12.044;2023-12-22T01:14:45;1.20;99.90
24836;DHT22;12915;57.650;12.044;2023-12-22T01:17:11;1.30;99.90
24836;DHT22;12915;57.650;12.044;2023-12-22T01:19:36;1.20;99.90
24836;DHT22;12915;57.650;12.044;2023-12-22T01:22:02;1.30;99.90
24836;DHT22;12915;57.650;12.044;2023-12-22T01:24:28;1.50;99.90
24836;DHT22;12915;57.650;12.044;2023-12-22T01:26:53;1.60;99.90
24836;DHT22;12915;57.650;12.044;2023-12-22T01:29:19;1.50;99.90
24836;DHT22;12915;57.650;12.044;2023-12-22T01:31:46;1.40;99.90
24836;DHT22;12915;57.650;12.044;2023-12-22T01:34:11;1.40;99.90
24836;DHT22;12915;57.650;12.044;2023-12-22T01:36:37;1.20;99.90
24836;DHT22;12915;57.650;12.044;2023-12-22T01:39:03;1.40;99.90
24836;DHT22;12915;57.650;12.044;2023-12-22T01:41:29;1.40;99.90
24836;DHT22;12915;57.650;12.044;2023-12-22T01:43:55;1.40;99.90
24836;DHT22;12915;57.650;12.044;2023-12-22T01:46:24;1.30;99.90
24836;DHT22;12915;57.650;12.044;2023-12-22T01:48:50;1.30;99.90
24836;DHT22;12915;57.650;12.044;2023-12-22T01:51:16;1.40;99.90
24836;DHT22;12915;57.650;12.044;2023-12-22T01:53:42;1.30;99.90
24836;DHT22;12915;57.650;12.044;2023-12-22T01:56:08;1.20;99.90
24836;DHT22;12915;57.650;12.044;2023-12-22T01:58:36;1.10;99.90
24836;DHT22;12915;57.650;12.044;2023-12-22T02:01:03;1.20;99.90
24836;DHT22;12915;57.650;12.044;2023-12-22T02:03:30;1.60;99.90
24836;DHT22;12915;57.650;12.044;2023-12-22T02:05:56;1.60;99.90
24836;DHT22;12915;57.650;12.044;2023-12-22T02:08:22;1.70;99.90
24836;DHT22;12915;57.650;12.044;2023-12-22T02:10:49;1.70;99.90
24836;DHT22;12915;57.650;12.044;2023-12-22T02:13:15;1.60;99.90
24836;DHT22;12915;57.650;12.044;2023-12-22T02:15:41;1.50;99.90
24836;DHT22;12915;57.650;12.044;2023-12-22T02:18:13;1.30;99.90
24836;DHT22;12915;57.650;12.044;2023-12-22T02:20:44;1.30;99.90
24836;DHT22;12915;57.650;12.044;2023-12-22T02:23:10;1.20;99.90
24836;DHT22;12915;57.650;12.044;2023-12-22T02:25:36;1.10;99.90
24836;DHT22;12915;57.650;12.044;2023-12-22T02:28:05;1.20;99.90
24836;DHT22;12915;57.650;12.044;2023-12-22T02:33:09;1.40;99.90
24836;DHT22;12915;57.650;12.044;2023-12-22T02:35:41;1.30;99.90
24836;DHT22;12915;57.650;12.044;2023-12-22T02:38:08;1.50;99.90
24836;DHT22;12915;57.650;12.044;2023-12-22T02:40:35;1.40;99.90
24836;DHT22;12915;57.650;12.044;2023-12-22T02:43:02;1.30;99.90
24836;DHT22;12915;57.650;12.044;2023-12-22T02:45:28;1.40;99.90
24836;DHT22;12915;57.650;12.044;2023-12-22T02:47:55;1.20;99.90
24836;DHT22;12915;57.650;12.044;2023-12-22T02:50:21;1.30;99.90
24836;DHT22;12915;57.650;12.044;2023-12-22T02:52:46;1.40;99.90
24836;DHT22;12915;57.650;12.044;2023-12-22T02:55:13;1.40;99.90
24836;DHT22;12915;57.650;12.044;2023-12-22T02:57:38;1.30;99.90
24836;DHT22;12915;57.650;12.044;2023-12-22T03:00:05;1.20;99.90
24836;DHT22;12915;57.650;12.044;2023-12-22T03:02:30;1.30;99.90
24836;DHT22;12915;57.650;12.044;2023-12-22T03:04:56;1.20;99.90
24836;DHT22;12915;57.650;12.044;2023-12-22T03:07:22;1.30;99.90
24836;DHT22;12915;57.650;12.044;2023-12-22T03:09:47;1.40;99.90
24836;DHT22;12915;57.650;12.044;2023-12-22T03:12:13;1.30;99.90
24836;DHT22;12915;57.650;12.044;2023-12-22T03:14:39;1.40;99.90
24836;DHT22;12915;57.650;12.044;2023-12-22T03:17:05;1.30;99.90
24836;DHT22;12915;57.650;12.044;2023-12-22T03:19:32;1.40;99.90
24836;DHT22;12915;57.650;12.044;2023-12-22T03:21:58;1.30;99.90
24836;DHT22;12915;57.650;12.044;2023-12-22T03:24:25;1.50;99.90
24836;DHT22;12915;57.650;12.044;2023-12-22T03:26:52;1.70;99.90
24836;DHT22;12915;57.650;12.044;2023-12-22T03:29:19;1.60;99.90
24836;DHT22;12915;57.650;12.044;2023-12-22T03:31:45;1.30;99.90
24836;DHT22;12915;57.650;12.044;2023-12-22T03:34:11;1.20;99.90
24836;DHT22;12915;57.650;12.044;2023-12-22T03:36:37;1.20;99.90
24836;DHT22;12915;57.650;12.044;2023-12-22T03:39:03;1.10;99.90
24836;DHT22;12915;57.650;12.044;2023-12-22T03:41:30;1.10;99.90
24836;DHT22;12915;57.650;12.044;2023-12-22T03:43:58;1.20;99.90
24836;DHT22;12915;57.650;12.044;2023-12-22T03:46:24;1.30;99.90
24836;DHT22;12915;57.650;12.044;2023-12-22T03:48:53;1.30;99.90
24836;DHT22;12915;57.650;12.044;2023-12-22T03:51:19;1.40;99.90
24836;DHT22;12915;57.650;12.044;2023-12-22T03:53:45;1.40;99.90
24836;DHT22;12915;57.650;12.044;2023-12-22T03:56:10;1.50;99.90
24836;DHT22;12915;57.650;12.044;2023-12-22T03:58:37;1.60;99.90
24836;DHT22;12915;57.650;12.044;2023-12-22T04:01:03;1.60;99.90
24836;DHT22;12915;57.650;12.044;2023-12-22T04:03:29;1.70;99.90
24836;DHT22;12915;57.650;12.044;2023-12-22T04:05:55;1.80;99.90
24836;DHT22;12915;57.650;12.044;2023-12-22T04:08:20;1.80;99.90
24836;DHT22;12915;57.650;12.044;2023-12-22T04:10:47;1.70;99.90
24836;DHT22;12915;57.650;12.044;2023-12-22T04:13:35;1.70;99.90
24836;DHT22;12915;57.650;12.044;2023-12-22T04:16:01;1.70;99.90
24836;DHT22;12915;57.650;12.044;2023-12-22T04:18:30;1.60;99.90
24836;DHT22;12915;57.650;12.044;2023-12-22T04:20:55;1.40;99.90
24836;DHT22;12915;57.650;12.044;2023-12-22T04:23:21;1.40;99.90
24836;DHT22;12915;57.650;12.044;2023-12-22T04:25:47;1.40;99.90
24836;DHT22;12915;57.650;12.044;2023-12-22T04:28:13;1.60;99.90
24836;DHT22;12915;57.650;12.044;2023-12-22T04:30:39;1.90;99.90
24836;DHT22;12915;57.650;12.044;2023-12-22T04:33:05;2.00;99.90
24836;DHT22;12915;57.650;12.044;2023-12-22T04:35:30;1.90;99.90
24836;DHT22;12915;57.650;12.044;2023-12-22T04:37:56;1.80;99.90
24836;DHT22;12915;57.650;12.044;2023-12-22T04:40:22;1.50;99.90
24836;DHT22;12915;57.650;12.044;2023-12-22T04:42:47;1.50;99.90
24836;DHT22;12915;57.650;12.044;2023-12-22T04:45:13;1.50;99.90
24836;DHT22;12915;57.650;12.044;2023-12-22T04:47:39;1.50;99.90
24836;DHT22;12915;57.650;12.044;2023-12-22T04:50:04;1.40;99.90
24836;DHT22;12915;57.650;12.044;2023-12-22T04:52:30;1.40;99.90
24836;DHT22;12915;57.650;12.044;2023-12-22T04:54:58;1.30;99.90
24836;DHT22;12915;57.650;12.044;2023-12-22T04:57:24;1.20;99.90
24836;DHT22;12915;57.650;12.044;2023-12-22T04:59:49;1.20;99.90
24836;DHT22;12915;57.650;12.044;2023-12-22T05:02:15;1.50;99.90
24836;DHT22;12915;57.650;12.044;2023-12-22T05:04:41;1.40;99.90
24836;DHT22;12915;57.650;12.044;2023-12-22T05:07:07;1.50;99.90
24836;DHT22;12915;57.650;12.044;2023-12-22T05:09:36;1.40;99.90
24836;DHT22;12915;57.650;12.044;2023-12-22T05:12:02;1.30;99.90
24836;DHT22;12915;57.650;12.044;2023-12-22T05:14:28;1.40;99.90
24836;DHT22;12915;57.650;12.044;2023-12-22T05:16:53;1.40;99.90
24836;DHT22;12915;57.650;12.044;2023-12-22T05:19:21;1.40;99.90
24836;DHT22;12915;57.650;12.044;2023-12-22T05:21:47;1.40;99.90
24836;DHT22;12915;57.650;12.044;2023-12-22T05:24:14;1.50;99.90
24836;DHT22;12915;57.650;12.044;2023-12-22T05:26:40;1.50;99.90
24836;DHT22;12915;57.650;12.044;2023-12-22T05:29:06;1.40;99.90
24836;DHT22;12915;57.650;12.044;2023-12-22T05:31:33;1.20;99.90
24836;DHT22;12915;57.650;12.044;2023-12-22T05:33:59;1.20;99.90
24836;DHT22;12915;57.650;12.044;2023-12-22T05:36:25;1.40;99.90
24836;DHT22;12915;57.650;12.044;2023-12-22T05:38:51;1.50;99.90
24836;DHT22;12915;57.650;12.044;2023-12-22T05:41:17;1.40;99.90
24836;DHT22;12915;57.650;12.044;2023-12-22T05:43:45;1.30;99.90
24836;DHT22;12915;57.650;12.044;2023-12-22T05:46:14;1.50;99.90
24836;DHT22;12915;57.650;12.044;2023-12-22T05:52:02;1.70;99.90
24836;DHT22;12915;57.650;12.044;2023-12-22T05:54:27;1.60;99.90
24836;DHT22;12915;57.650;12.044;2023-12-22T05:56:53;1.70;99.90
24836;DHT22;12915;57.650;12.044;2023-12-22T05:59:19;1.50;99.90
24836;DHT22;12915;57.650;12.044;2023-12-22T06:01:45;1.40;99.90
24836;DHT22;12915;57.650;12.044;2023-12-22T06:04:10;1.50;99.90
24836;DHT22;12915;57.650;12.044;2023-12-22T06:06:36;1.60;99.90
24836;DHT22;12915;57.650;12.044;2023-12-22T06:09:17;1.40;99.90
24836;DHT22;12915;57.650;12.044;2023-12-22T06:11:48;1.10;99.90
24836;DHT22;12915;57.650;12.044;2023-12-22T06:14:16;1.20;99.90
24836;DHT22;12915;57.650;12.044;2023-12-22T06:16:44;1.30;99.90
24836;DHT22;12915;57.650;12.044;2023-12-22T06:19:13;1.40;99.90
24836;DHT22;12915;57.650;12.044;2023-12-22T06:21:39;1.30;99.90
24836;DHT22;12915;57.650;12.044;2023-12-22T06:24:05;1.30;99.90
24836;DHT22;12915;57.650;12.044;2023-12-22T06:26:31;1.40;99.90
24836;DHT22;12915;57.650;12.044;2023-12-22T06:28:57;1.40;99.90
24836;DHT22;12915;57.650;12.044;2023-12-22T06:31:23;1.20;99.90
24836;DHT22;12915;57.650;12.044;2023-12-22T06:33:49;1.40;99.90
24836;DHT22;12915;57.650;12.044;2023-12-22T06:36:22;1.50;99.90
24836;DHT22;12915;57.650;12.044;2023-12-22T06:38:52;1.40;99.90
24836;DHT22;12915;57.650;12.044;2023-12-22T06:41:31;1.40;99.90
24836;DHT22;12915;57.650;12.044;2023-12-22T06:44:01;1.60;99.90
24836;DHT22;12915;57.650;12.044;2023-12-22T06:46:28;1.60;99.90
24836;DHT22;12915;57.650;12.044;2023-12-22T06:48:55;1.50;99.90
24836;DHT22;12915;57.650;12.044;2023-12-22T06:51:28;1.50;99.90
24836;DHT22;12915;57.650;12.044;2023-12-22T06:53:57;1.40;99.90
24836;DHT22;12915;57.650;12.044;2023-12-22T06:56:29;1.40;99.90
24836;DHT22;12915;57.650;12.044;2023-12-22T06:58:57;1.40;99.90
24836;DHT22;12915;57.650;12.044;2023-12-22T07:01:30;1.60;99.90
24836;DHT22;12915;57.650;12.044;2023-12-22T07:03:57;1.40;99.90
24836;DHT22;12915;57.650;12.044;2023-12-22T07:06:24;1.40;99.90
24836;DHT22;12915;57.650;12.044;2023-12-22T07:11:45;1.30;99.90
24836;DHT22;12915;57.650;12.044;2023-12-22T07:14:11;1.30;99.90
24836;DHT22;12915;57.650;12.044;2023-12-22T07:16:37;1.50;99.90
24836;DHT22;12915;57.650;12.044;2023-12-22T07:19:04;1.40;99.90
24836;DHT22;12915;57.650;12.044;2023-12-22T07:21:31;1.40;99.90
24836;DHT22;12915;57.650;12.044;2023-12-22T07:23:59;1.40;99.90
24836;DHT22;12915;57.650;12.044;2023-12-22T07:26:26;1.50;99.90
24836;DHT22;12915;57.650;12.044;2023-12-22T07:28:52;1.50;99.90
24836;DHT22;12915;57.650;12.044;2023-12-22T07:31:22;1.30;99.90
24836;DHT22;12915;57.650;12.044;2023-12-22T07:33:48;1.40;99.90
24836;DHT22;12915;57.650;12.044;2023-12-22T07:36:13;1.30;99.90
24836;DHT22;12915;57.650;12.044;2023-12-22T07:38:39;1.30;99.90
24836;DHT22;12915;57.650;12.044;2023-12-22T07:41:05;1.20;99.90
24836;DHT22;12915;57.650;12.044;2023-12-22T07:43:31;1.40;99.90
24836;DHT22;12915;57.650;12.044;2023-12-22T07:45:57;1.50;99.90
24836;DHT22;12915;57.650;12.044;2023-12-22T07:48:23;1.50;99.90
24836;DHT22;12915;57.650;12.044;2023-12-22T07:50:49;1.50;99.90
24836;DHT22;12915;57.650;12.044;2023-12-22T07:53:15;1.60;99.90
24836;DHT22;12915;57.650;12.044;2023-12-22T07:55:41;1.80;99.90
24836;DHT22;12915;57.650;12.044;2023-12-22T07:58:07;1.80;99.90
24836;DHT22;12915;57.650;12.044;2023-12-22T08:00:33;1.90;99.90
24836;DHT22;12915;57.650;12.044;2023-12-22T08:02:59;1.90;99.90
24836;DHT22;12915;57.650;12.044;2023-12-22T08:05:26;1.90;99.90
24836;DHT22;12915;57.650;12.044;2023-12-22T08:07:52;2.00;99.90
24836;DHT22;12915;57.650;12.044;2023-12-22T08:10:19;1.80;99.90
24836;DHT22;12915;57.650;12.044;2023-12-22T08:12:45;2.00;99.90
24836;DHT22;12915;57.650;12.044;2023-12-22T08:15:10;1.80;99.90
24836;DHT22;12915;57.650;12.044;2023-12-22T08:17:36;1.80;99.90
24836;DHT22;12915;57.650;12.044;2023-12-22T08:20:03;2.00;99.90
24836;DHT22;12915;57.650;12.044;2023-12-22T08:22:29;2.00;99.90
24836;DHT22;12915;57.650;12.044;2023-12-22T08:24:55;1.90;99.90
24836;DHT22;12915;57.650;12.044;2023-12-22T08:27:20;1.60;99.90
24836;DHT22;12915;57.650;12.044;2023-12-22T08:29:46;1.60;99.90
24836;DHT22;12915;57.650;12.044;2023-12-22T08:32:12;1.90;99.90
24836;DHT22;12915;57.650;12.044;2023-12-22T08:34:38;2.10;99.90
24836;DHT22;12915;57.650;12.044;2023-12-22T08:37:04;2.00;99.90
24836;DHT22;12915;57.650;12.044;2023-12-22T08:39:29;2.10;99.90
24836;DHT22;12915;57.650;12.044;2023-12-22T08:42:05;2.10;99.90
24836;DHT22;12915;57.650;12.044;2023-12-22T08:44:31;2.40;99.90
24836;DHT22;12915;57.650;12.044;2023-12-22T08:46:57;2.50;99.90
24836;DHT22;12915;57.650;12.044;2023-12-22T08:49:22;2.50;99.90
24836;DHT22;12915;57.650;12.044;2023-12-22T08:51:48;2.40;99.90
24836;DHT22;12915;57.650;12.044;2023-12-22T08:54:14;2.50;99.90
24836;DHT22;12915;57.650;12.044;2023-12-22T08:56:40;2.30;99.90
24836;DHT22;12915;57.650;12.044;2023-12-22T08:59:06;1.90;99.90
24836;DHT22;12915;57.650;12.044;2023-12-22T09:01:34;1.90;99.90
24836;DHT22;12915;57.650;12.044;2023-12-22T09:04:00;1.90;99.90
24836;DHT22;12915;57.650;12.044;2023-12-22T09:06:27;2.30;99.90
24836;DHT22;12915;57.650;12.044;2023-12-22T09:08:53;2.30;99.90
24836;DHT22;12915;57.650;12.044;2023-12-22T09:11:20;2.30;99.90
24836;DHT22;12915;57.650;12.044;2023-12-22T09:13:46;2.50;99.90
24836;DHT22;12915;57.650;12.044;2023-12-22T09:16:12;2.60;99.90
24836;DHT22;12915;57.650;12.044;2023-12-22T09:18:41;2.50;99.90
24836;DHT22;12915;57.650;12.044;2023-12-22T09:21:08;2.60;99.90
24836;DHT22;12915;57.650;12.044;2023-12-22T09:23:33;2.60;99.90
24836;DHT22;12915;57.650;12.044;2023-12-22T09:25:59;2.70;99.90
24836;DHT22;12915;57.650;12.044;2023-12-22T09:28:25;2.60;99.90
24836;DHT22;12915;57.650;12.044;2023-12-22T09:30:50;2.70;99.90
24836;DHT22;12915;57.650;12.044;2023-12-22T09:33:16;2.80;99.90
24836;DHT22;12915;57.650;12.044;2023-12-22T09:35:42;2.90;99.90
24836;DHT22;12915;57.650;12.044;2023-12-22T09:38:08;2.80;99.90
24836;DHT22;12915;57.650;12.044;2023-12-22T09:40:35;3.00;99.90
24836;DHT22;12915;57.650;12.044;2023-12-22T09:43:02;3.10;99.90
24836;DHT22;12915;57.650;12.044;2023-12-22T09:45:30;3.10;99.90
24836;DHT22;12915;57.650;12.044;2023-12-22T09:47:56;2.90;99.90
24836;DHT22;12915;57.650;12.044;2023-12-22T09:50:23;2.80;99.90
24836;DHT22;12915;57.650;12.044;2023-12-22T09:52:50;2.80;99.90
24836;DHT22;12915;57.650;12.044;2023-12-22T09:55:18;2.70;99.90
24836;DHT22;12915;57.650;12.044;2023-12-22T09:57:45;2.60;99.90
24836;DHT22;12915;57.650;12.044;2023-12-22T10:00:11;2.60;99.90
24836;DHT22;12915;57.650;12.044;2023-12-22T10:02:39;2.60;99.90
24836;DHT22;12915;57.650;12.044;2023-12-22T10:05:05;2.60;99.90
24836;DHT22;12915;57.650;12.044;2023-12-22T10:07:31;2.70;99.90
24836;DHT22;12915;57.650;12.044;2023-12-22T10:09:59;2.80;99.90
24836;DHT22;12915;57.650;12.044;2023-12-22T10:12:27;2.50;99.90
24836;DHT22;12915;57.650;12.044;2023-12-22T10:14:53;2.30;99.90
24836;DHT22;12915;57.650;12.044;2023-12-22T10:17:20;2.20;99.90
24836;DHT22;12915;57.650;12.044;2023-12-22T10:19:45;2.30;99.90
24836;DHT22;12915;57.650;12.044;2023-12-22T10:22:11;2.50;99.90
24836;DHT22;12915;57.650;12.044;2023-12-22T10:24:45;2.60;99.90
24836;DHT22;12915;57.650;12.044;2023-12-22T10:27:17;2.10;99.90
24836;DHT22;12915;57.650;12.044;2023-12-22T10:29:50;1.70;99.90
24836;DHT22;12915;57.650;12.044;2023-12-22T10:32:16;1.90;99.90
24836;DHT22;12915;57.650;12.044;2023-12-22T10:34:42;2.10;99.90
24836;DHT22;12915;57.650;12.044;2023-12-22T10:37:09;2.10;99.90
24836;DHT22;12915;57.650;12.044;2023-12-22T10:39:36;2.00;99.90
24836;DHT22;12915;57.650;12.044;2023-12-22T10:42:02;2.20;99.90
24836;DHT22;12915;57.650;12.044;2023-12-22T10:44:28;2.10;99.90
24836;DHT22;12915;57.650;12.044;2023-12-22T10:46:55;2.00;99.90
24836;DHT22;12915;57.650;12.044;2023-12-22T10:49:25;2.20;99.90
24836;DHT22;12915;57.650;12.044;2023-12-22T10:51:57;2.10;99.90
24836;DHT22;12915;57.650;12.044;2023-12-22T10:54:22;2.20;99.90
24836;DHT22;12915;57.650;12.044;2023-12-22T10:56:48;2.20;99.90
24836;DHT22;12915;57.650;12.044;2023-12-22T10:59:18;2.20;99.90
24836;DHT22;12915;57.650;12.044;2023-12-22T11:01:48;2.10;99.90
24836;DHT22;12915;57.650;12.044;2023-12-22T11:04:18;2.30;99.90
24836;DHT22;12915;57.650;12.044;2023-12-22T11:06:47;2.50;99.90
24836;DHT22;12915;57.650;12.044;2023-12-22T11:09:16;2.40;99.90
24836;DHT22;12915;57.650;12.044;2023-12-22T11:11:42;2.40;99.90
24836;DHT22;12915;57.650;12.044;2023-12-22T11:14:08;2.20;99.90
24836;DHT22;12915;57.650;12.044;2023-12-22T11:16:35;2.30;99.90
24836;DHT22;12915;57.650;12.044;2023-12-22T11:19:04;2.30;99.90
24836;DHT22;12915;57.650;12.044;2023-12-22T11:21:31;2.40;99.90
24836;DHT22;12915;57.650;12.044;2023-12-22T11:23:57;2.10;99.90
24836;DHT22;12915;57.650;12.044;2023-12-22T11:26:24;1.80;99.90
24836;DHT22;12915;57.650;12.044;2023-12-22T11:28:52;1.90;99.90
24836;DHT22;12915;57.650;12.044;2023-12-22T11:31:18;2.00;99.90
24836;DHT22;12915;57.650;12.044;2023-12-22T11:33:48;2.00;99.90
24836;DHT22;12915;57.650;12.044;2023-12-22T11:36:15;1.90;99.90
24836;DHT22;12915;57.650;12.044;2023-12-22T11:38:42;1.90;99.90
24836;DHT22;12915;57.650;12.044;2023-12-22T11:41:25;1.80;99.90
24836;DHT22;12915;57.650;12.044;2023-12-22T11:43:52;2.00;99.90
24836;DHT22;12915;57.650;12.044;2023-12-22T11:46:18;2.30;99.90
24836;DHT22;12915;57.650;12.044;2023-12-22T11:48:48;2.50;99.90
24836;DHT22;12915;57.650;12.044;2023-12-22T11:51:14;2.40;99.90
24836;DHT22;12915;57.650;12.044;2023-12-22T11:53:40;2.10;99.90
24836;DHT22;12915;57.650;12.044;2023-12-22T11:56:07;2.40;99.90
24836;DHT22;12915;57.650;12.044;2023-12-22T12:01:17;2.20;99.90
24836;DHT22;12915;57.650;12.044;2023-12-22T12:03:56;2.00;99.90
24836;DHT22;12915;57.650;12.044;2023-12-22T12:09:00;2.30;99.90
24836;DHT22;12915;57.650;12.044;2023-12-22T12:14:22;2.40;99.90
24836;DHT22;12915;57.650;12.044;2023-12-22T12:16:48;2.50;99.90
24836;DHT22;12915;57.650;12.044;2023-12-22T12:19:14;2.60;99.90
24836;DHT22;12915;57.650;12.044;2023-12-22T12:21:40;2.40;99.90
24836;DHT22;12915;57.650;12.044;2023-12-22T12:24:06;2.60;99.90
24836;DHT22;12915;57.650;12.044;2023-12-22T12:26:35;2.30;99.90
24836;DHT22;12915;57.650;12.044;2023-12-22T12:29:01;2.30;99.90
24836;DHT22;12915;57.650;12.044;2023-12-22T12:31:37;2.50;99.90
24836;DHT22;12915;57.650;12.044;2023-12-22T12:34:22;3.00;99.90
24836;DHT22;12915;57.650;12.044;2023-12-22T12:36:48;2.70;99.90
24836;DHT22;12915;57.650;12.044;2023-12-22T12:39:15;2.60;99.90
24836;DHT22;12915;57.650;12.044;2023-12-22T12:41:42;2.60;99.90
24836;DHT22;12915;57.650;12.044;2023-12-22T12:44:11;2.60;99.90
24836;DHT22;12915;57.650;12.044;2023-12-22T12:46:38;2.30;99.90
24836;DHT22;12915;57.650;12.044;2023-12-22T12:49:09;2.20;99.90
24836;DHT22;12915;57.650;12.044;2023-12-22T12:51:38;2.30;99.90
24836;DHT22;12915;57.650;12.044;2023-12-22T12:57:18;2.60;99.90
24836;DHT22;12915;57.650;12.044;2023-12-22T12:59:48;2.40;99.90
24836;DHT22;12915;57.650;12.044;2023-12-22T13:02:18;2.10;99.90
24836;DHT22;12915;57.650;12.044;2023-12-22T13:04:45;2.00;99.90
24836;DHT22;12915;57.650;12.044;2023-12-22T13:07:12;2.10;99.90
24836;DHT22;12915;57.650;12.044;2023-12-22T13:09:39;2.30;99.90
24836;DHT22;12915;57.650;12.044;2023-12-22T13:12:07;2.10;99.90
24836;DHT22;12915;57.650;12.044;2023-12-22T13:14:35;2.00;99.90
24836;DHT22;12915;57.650;12.044;2023-12-22T13:17:00;2.20;99.90
24836;DHT22;12915;57.650;12.044;2023-12-22T13:19:26;2.20;99.90
24836;DHT22;12915;57.650;12.044;2023-12-22T13:21:56;2.50;99.90
24836;DHT22;12915;57.650;12.044;2023-12-22T13:24:22;2.90;99.90
24836;DHT22;12915;57.650;12.044;2023-12-22T13:26:59;2.90;99.90
24836;DHT22;12915;57.650;12.044;2023-12-22T13:29:25;2.50;99.90
24836;DHT22;12915;57.650;12.044;2023-12-22T13:31:51;2.40;99.90
24836;DHT22;12915;57.650;12.044;2023-12-22T13:34:16;2.50;99.90
24836;DHT22;12915;57.650;12.044;2023-12-22T13:36:42;2.20;99.90
24836;DHT22;12915;57.650;12.044;2023-12-22T13:39:09;2.30;99.90
24836;DHT22;12915;57.650;12.044;2023-12-22T13:41:38;2.20;99.90
24836;DHT22;12915;57.650;12.044;2023-12-22T13:44:14;2.20;99.90
24836;DHT22;12915;57.650;12.044;2023-12-22T13:46:40;2.30;99.90
24836;DHT22;12915;57.650;12.044;2023-12-22T13:49:08;2.50;99.90
24836;DHT22;12915;57.650;12.044;2023-12-22T13:51:42;2.40;99.90
24836;DHT22;12915;57.650;12.044;2023-12-22T13:54:08;2.10;99.90
24836;DHT22;12915;57.650;12.044;2023-12-22T13:56:37;2.20;99.90
24836;DHT22;12915;57.650;12.044;2023-12-22T13:59:06;2.00;99.90
24836;DHT22;12915;57.650;12.044;2023-12-22T14:01:32;1.90;99.90
24836;DHT22;12915;57.650;12.044;2023-12-22T14:03:59;2.00;99.90
24836;DHT22;12915;57.650;12.044;2023-12-22T14:06:28;1.50;99.90
24836;DHT22;12915;57.650;12.044;2023-12-22T14:08:55;1.40;99.90
24836;DHT22;12915;57.650;12.044;2023-12-22T14:11:21;1.60;99.90
24836;DHT22;12915;57.650;12.044;2023-12-22T14:13:49;1.90;99.90
24836;DHT22;12915;57.650;12.044;2023-12-22T14:16:14;1.90;99.90
24836;DHT22;12915;57.650;12.044;2023-12-22T14:18:43;1.70;99.90
24836;DHT22;12915;57.650;12.044;2023-12-22T14:21:09;1.80;99.90
24836;DHT22;12915;57.650;12.044;2023-12-22T14:23:35;2.10;99.90
24836;DHT22;12915;57.650;12.044;2023-12-22T14:26:01;1.70;99.90
24836;DHT22;12915;57.650;12.044;2023-12-22T14:28:27;1.20;99.90
24836;DHT22;12915;57.650;12.044;2023-12-22T14:30:53;1.10;99.90
24836;DHT22;12915;57.650;12.044;2023-12-22T14:33:19;1.20;99.90
24836;DHT22;12915;57.650;12.044;2023-12-22T14:35:47;1.30;99.90
24836;DHT22;12915;57.650;12.044;2023-12-22T14:38:13;1.40;99.90
24836;DHT22;12915;57.650;12.044;2023-12-22T14:40:39;1.50;99.90
24836;DHT22;12915;57.650;12.044;2023-12-22T14:43:05;1.80;99.90
24836;DHT22;12915;57.650;12.044;2023-12-22T14:45:30;1.70;99.90
24836;DHT22;12915;57.650;12.044;2023-12-22T14:51:12;1.50;99.90
24836;DHT22;12915;57.650;12.044;2023-12-22T14:53:38;1.20;99.90
24836;DHT22;12915;57.650;12.044;2023-12-22T14:56:06;1.20;99.90
24836;DHT22;12915;57.650;12.044;2023-12-22T14:58:34;1.20;99.90
24836;DHT22;12915;57.650;12.044;2023-12-22T15:00:59;1.20;99.90
24836;DHT22;12915;57.650;12.044;2023-12-22T15:03:25;1.30;99.90
24836;DHT22;12915;57.650;12.044;2023-12-22T15:05:51;1.40;99.90
24836;DHT22;12915;57.650;12.044;2023-12-22T15:08:18;1.40;99.90
24836;DHT22;12915;57.650;12.044;2023-12-22T15:10:43;1.20;99.90
24836;DHT22;12915;57.650;12.044;2023-12-22T15:13:09;1.00;99.90
24836;DHT22;12915;57.650;12.044;2023-12-22T15:15:35;1.10;99.90
24836;DHT22;12915;57.650;12.044;2023-12-22T15:18:00;1.30;99.90
24836;DHT22;12915;57.650;12.044;2023-12-22T15:20:59;1.40;99.90
24836;DHT22;12915;57.650;12.044;2023-12-22T15:23:25;1.30;99.90
24836;DHT22;12915;57.650;12.044;2023-12-22T15:25:51;1.40;99.90
24836;DHT22;12915;57.650;12.044;2023-12-22T15:28:17;1.30;99.90
24836;DHT22;12915;57.650;12.044;2023-12-22T15:30:43;1.40;99.90
24836;DHT22;12915;57.650;12.044;2023-12-22T15:33:08;1.20;99.90
24836;DHT22;12915;57.650;12.044;2023-12-22T15:35:34;1.10;99.90
24836;DHT22;12915;57.650;12.044;2023-12-22T15:38:02;1.10;99.90
24836;DHT22;12915;57.650;12.044;2023-12-22T15:40:28;1.20;99.90
24836;DHT22;12915;57.650;12.044;2023-12-22T15:42:55;1.00;99.90
24836;DHT22;12915;57.650;12.044;2023-12-22T15:45:20;1.20;99.90
24836;DHT22;12915;57.650;12.044;2023-12-22T15:47:46;1.40;99.90
24836;DHT22;12915;57.650;12.044;2023-12-22T15:50:12;1.40;99.90
24836;DHT22;12915;57.650;12.044;2023-12-22T15:52:40;1.50;99.90